createdAt,value
2018-12-17T00:01:24.724Z,4.53
2018-12-17T00:06:38.013Z,8.70
2018-12-17T00:09:07.966Z,5.77
2018-12-17T00:11:36.853Z,5.50
2018-12-17T00:14:05.417Z,6.57
2018-12-17T00:16:34.124Z,4.77
2018-12-17T00:19:02.673Z,6.97
2018-12-17T00:21:31.313Z,5.47
2018-12-17T00:24:00.002Z,5.17
2018-12-17T00:26:28.644Z,5.30
2018-12-17T00:28:57.301Z,5.53
2018-12-17T00:31:25.846Z,5.90
2018-12-17T00:33:54.487Z,6.03
2018-12-17T00:36:23.207Z,6.07
2018-12-17T00:38:51.843Z,4.70
2018-12-17T00:41:20.410Z,5.63
2018-12-17T00:43:49.114Z,5.27
2018-12-17T00:46:17.894Z,3.50
2018-12-17T00:48:46.581Z,8.73
2018-12-17T00:51:15.414Z,4.80
2018-12-17T00:53:44.249Z,7.77
2018-12-17T00:56:12.797Z,4.73
2018-12-17T00:58:41.518Z,6.33
2018-12-17T01:01:10.077Z,6.67
2018-12-17T01:03:38.787Z,6.73
2018-12-17T01:06:07.423Z,5.40
2018-12-17T01:08:36.022Z,7.90
2018-12-17T01:11:04.693Z,6.20
2018-12-17T01:13:33.450Z,3.43
2018-12-17T01:16:06.135Z,3.27
2018-12-17T01:18:34.926Z,5.60
2018-12-17T01:21:03.561Z,6.43
2018-12-17T01:23:32.196Z,4.63
2018-12-17T01:26:01.088Z,4.73
2018-12-17T01:28:29.788Z,3.33
2018-12-17T01:30:58.497Z,7.33
2018-12-17T01:33:27.094Z,6.33
2018-12-17T01:35:55.766Z,3.90
2018-12-17T01:38:24.324Z,3.20
2018-12-17T01:40:53.038Z,2.93
2018-12-17T01:43:21.673Z,6.37
2018-12-17T01:45:50.308Z,4.43
2018-12-17T01:48:18.945Z,4.37
2018-12-17T01:50:47.582Z,3.77
2018-12-17T01:53:16.215Z,2.00
2018-12-17T01:55:44.850Z,3.80
2018-12-17T01:58:13.467Z,3.93
2018-12-17T02:00:42.122Z,4.23
2018-12-17T02:03:10.952Z,5.27
2018-12-17T02:05:39.511Z,4.97
2018-12-17T02:08:08.151Z,6.20
2018-12-17T02:10:36.860Z,6.70
2018-12-17T02:13:05.495Z,4.63
2018-12-17T02:15:34.045Z,4.97
2018-12-17T02:18:02.739Z,7.53
2018-12-17T02:20:31.401Z,4.50
2018-12-17T02:22:59.965Z,3.33
2018-12-17T02:25:28.671Z,4.40
2018-12-17T02:27:57.221Z,4.03
2018-12-17T02:30:25.871Z,4.07
2018-12-17T02:32:54.551Z,4.87
2018-12-17T02:35:25.136Z,3.50
2018-12-17T02:37:54.209Z,2.60
2018-12-17T02:40:22.821Z,2.37
2018-12-17T02:42:51.480Z,3.63
2018-12-17T02:45:19.981Z,2.27
2018-12-17T02:47:48.853Z,3.10
2018-12-17T02:50:17.583Z,2.57
2018-12-17T02:52:46.096Z,2.93
2018-12-17T02:55:14.807Z,1.67
2018-12-17T02:57:43.354Z,2.77
2018-12-17T03:00:12.319Z,2.53
2018-12-17T03:02:40.877Z,3.73
2018-12-17T03:05:10.839Z,4.67
2018-12-17T03:07:39.481Z,3.63
2018-12-17T03:10:08.435Z,2.37
2018-12-17T03:12:37.070Z,3.47
2018-12-17T03:15:07.116Z,5.27
2018-12-17T03:17:35.815Z,4.37
2018-12-17T03:20:05.369Z,2.50
2018-12-17T03:22:34.094Z,4.80
2018-12-17T03:25:02.737Z,2.17
2018-12-17T03:27:31.440Z,2.43
2018-12-17T03:30:00.088Z,3.73
2018-12-17T03:32:28.632Z,3.37
2018-12-17T03:34:57.740Z,4.63
2018-12-17T03:37:26.560Z,3.57
2018-12-17T03:39:55.405Z,4.20
2018-12-17T03:42:24.235Z,5.23
2018-12-17T03:44:53.067Z,5.77
2018-12-17T03:47:21.619Z,4.20
2018-12-17T03:49:50.259Z,5.73
2018-12-17T03:52:18.973Z,4.83
2018-12-17T03:54:47.608Z,4.83
2018-12-17T03:57:16.261Z,3.80
2018-12-17T03:59:44.878Z,6.03
2018-12-17T04:02:13.433Z,2.93
2018-12-17T04:04:42.416Z,3.63
2018-12-17T04:07:11.375Z,4.03
2018-12-17T04:09:39.804Z,6.57
2018-12-17T04:12:08.647Z,3.10
2018-12-17T04:14:37.213Z,5.80
2018-12-17T04:17:05.823Z,6.60
2018-12-17T04:19:34.357Z,5.17
2018-12-17T04:22:03.189Z,6.13
2018-12-17T04:24:31.695Z,5.43
2018-12-17T04:27:00.184Z,6.20
2018-12-17T04:29:29.102Z,3.47
2018-12-17T04:31:57.733Z,6.77
2018-12-17T04:34:26.229Z,8.43
2018-12-17T04:36:54.969Z,6.07
2018-12-17T04:39:23.636Z,4.87
2018-12-17T04:41:52.530Z,5.43
2018-12-17T04:44:21.104Z,8.20
2018-12-17T04:46:49.651Z,6.50
2018-12-17T04:49:18.545Z,6.50
2018-12-17T04:51:47.212Z,6.67
2018-12-17T04:54:16.040Z,6.50
2018-12-17T04:56:44.676Z,5.37
2018-12-17T04:59:14.837Z,6.37
2018-12-17T05:01:44.109Z,7.40
2018-12-17T05:04:12.743Z,6.70
2018-12-17T05:06:41.379Z,6.50
2018-12-17T05:09:10.017Z,4.63
2018-12-17T05:11:38.515Z,5.97
2018-12-17T05:14:07.189Z,5.67
2018-12-17T05:16:35.828Z,4.13
2018-12-17T05:19:04.519Z,4.03
2018-12-17T05:21:33.159Z,6.27
2018-12-17T05:24:01.827Z,6.57
2018-12-17T05:26:30.463Z,6.60
2018-12-17T05:28:59.097Z,6.47
2018-12-17T05:31:27.643Z,5.40
2018-12-17T05:33:56.369Z,4.80
2018-12-17T05:36:25.005Z,4.93
2018-12-17T05:38:53.563Z,6.77
2018-12-17T05:41:22.277Z,7.77
2018-12-17T05:43:50.914Z,5.33
2018-12-17T05:46:19.458Z,4.27
2018-12-17T05:48:48.098Z,3.27
2018-12-17T05:51:16.621Z,4.53
2018-12-17T05:53:45.257Z,2.73
2018-12-17T05:56:13.893Z,6.23
2018-12-17T05:58:42.432Z,5.40
2018-12-17T06:01:11.170Z,3.43
2018-12-17T06:03:39.798Z,4.47
2018-12-17T06:06:08.629Z,5.40
2018-12-17T06:08:37.128Z,7.00
2018-12-17T06:11:05.704Z,3.60
2018-12-17T06:13:34.297Z,4.10
2018-12-17T06:16:02.978Z,5.33
2018-12-17T06:18:31.525Z,4.37
2018-12-17T06:21:00.443Z,5.20
2018-12-17T06:23:29.007Z,4.40
2018-12-17T06:25:57.717Z,6.20
2018-12-17T06:28:26.350Z,3.27
2018-12-17T06:30:54.986Z,4.23
2018-12-17T06:33:23.592Z,3.77
2018-12-17T06:35:52.256Z,5.40
2018-12-17T06:38:20.995Z,5.07
2018-12-17T06:40:49.723Z,3.33
2018-12-17T06:43:18.361Z,5.57
2018-12-17T06:45:46.994Z,6.30
2018-12-17T06:48:17.232Z,4.57
2018-12-17T06:50:46.169Z,5.90
2018-12-17T06:53:14.867Z,4.87
2018-12-17T06:55:43.473Z,4.93
2018-12-17T06:58:12.925Z,5.67
2018-12-17T07:00:41.527Z,3.97
2018-12-17T07:03:10.196Z,2.70
2018-12-17T07:05:38.836Z,6.80
2018-12-17T07:08:07.467Z,4.10
2018-12-17T07:10:36.299Z,4.77
2018-12-17T07:13:04.854Z,5.80
2018-12-17T07:15:33.569Z,4.80
2018-12-17T07:18:02.205Z,6.83
2018-12-17T07:20:30.705Z,5.00
2018-12-17T07:22:59.437Z,3.73
2018-12-17T07:25:28.112Z,4.40
2018-12-17T07:27:56.611Z,4.80
2018-12-17T07:30:25.245Z,3.97
2018-12-17T07:32:53.980Z,4.77
2018-12-17T07:35:22.653Z,5.33
2018-12-17T07:37:51.882Z,4.23
2018-12-17T07:40:20.481Z,4.03
2018-12-17T07:42:49.223Z,4.93
2018-12-17T07:45:17.787Z,4.03
2018-12-17T07:47:46.354Z,3.13
2018-12-17T07:50:14.774Z,5.17
2018-12-17T07:52:43.362Z,3.17
2018-12-17T07:55:11.934Z,3.47
2018-12-17T07:57:40.572Z,4.07
2018-12-17T08:00:11.042Z,4.70
2018-12-17T08:02:39.538Z,4.93
2018-12-17T08:05:08.449Z,3.70
2018-12-17T08:07:37.081Z,3.83
2018-12-17T08:10:06.805Z,3.30
2018-12-17T08:12:35.596Z,4.63
2018-12-17T08:15:05.585Z,4.07
2018-12-17T08:17:34.372Z,3.90
2018-12-17T08:20:03.011Z,4.50
2018-12-17T08:22:31.748Z,4.83
2018-12-17T08:25:02.245Z,4.33
2018-12-17T08:27:30.986Z,7.07
2018-12-17T08:30:03.929Z,5.30
2018-12-17T08:32:30.467Z,2.20
2018-12-17T08:34:59.114Z,7.57
2018-12-17T08:37:27.644Z,2.80
2018-12-17T08:39:56.416Z,7.10
2018-12-17T08:42:25.054Z,5.80
2018-12-17T08:44:53.855Z,2.47
2018-12-17T08:47:22.717Z,5.03
2018-12-17T08:49:51.292Z,5.57
2018-12-17T08:52:19.988Z,5.63
2018-12-17T08:54:48.884Z,4.23
2018-12-17T08:57:17.269Z,5.07
2018-12-17T08:59:45.893Z,5.10
2018-12-17T09:02:14.532Z,4.47
2018-12-17T09:04:43.165Z,3.43
2018-12-17T09:07:11.802Z,4.87
2018-12-17T09:09:40.435Z,5.83
2018-12-17T09:12:09.270Z,5.30
2018-12-17T09:14:37.902Z,4.70
2018-12-17T09:17:06.736Z,2.93
2018-12-17T09:19:35.567Z,3.33
2018-12-17T09:22:04.855Z,4.20
2018-12-17T09:24:33.530Z,7.00
2018-12-17T09:27:02.223Z,4.77
2018-12-17T09:29:30.895Z,5.77
2018-12-17T09:31:59.458Z,2.97
2018-12-17T09:34:27.969Z,4.23
2018-12-17T09:36:56.605Z,7.27
2018-12-17T09:39:25.106Z,4.60
2018-12-17T09:41:53.876Z,4.40
2018-12-17T09:44:22.513Z,3.53
2018-12-17T09:46:51.344Z,3.40
2018-12-17T09:49:20.237Z,4.60
2018-12-17T09:51:49.010Z,4.47
2018-12-17T09:54:17.561Z,6.23
2018-12-17T09:56:46.277Z,7.27
2018-12-17T09:59:14.913Z,5.13
2018-12-17T10:01:43.549Z,5.10
2018-12-17T10:04:12.184Z,6.83
2018-12-17T10:06:40.974Z,7.57
2018-12-17T10:09:09.849Z,3.20
2018-12-17T10:11:38.294Z,3.70
2018-12-17T10:14:07.100Z,3.63
2018-12-17T10:16:35.717Z,4.17
2018-12-17T10:19:04.520Z,3.00
2018-12-17T10:21:33.203Z,5.77
2018-12-17T10:24:02.021Z,6.27
2018-12-17T10:26:31.062Z,4.33
2018-12-17T10:28:59.720Z,3.53
2018-12-17T10:31:28.550Z,6.20
2018-12-17T10:33:57.188Z,7.50
2018-12-17T10:36:25.730Z,5.23
2018-12-17T10:38:54.425Z,6.53
2018-12-17T10:41:23.092Z,4.50
2018-12-17T10:43:51.658Z,4.50
2018-12-17T10:46:20.362Z,5.07
2018-12-17T10:48:49.001Z,4.57
2018-12-17T10:51:17.770Z,2.73
2018-12-17T10:53:46.486Z,6.10
2018-12-17T10:56:15.069Z,4.47
2018-12-17T10:58:43.738Z,5.10
2018-12-17T11:01:17.806Z,5.30
2018-12-17T11:03:48.545Z,4.03
2018-12-17T11:06:19.734Z,6.90
2018-12-17T11:08:50.273Z,10.40
2018-12-17T11:11:18.906Z,4.87
2018-12-17T11:13:47.739Z,5.77
2018-12-17T11:16:16.310Z,6.90
2018-12-17T11:18:45.009Z,5.13
2018-12-17T11:21:13.644Z,7.03
2018-12-17T11:23:42.834Z,4.70
2018-12-17T11:26:11.570Z,6.33
2018-12-17T11:28:40.218Z,5.63
2018-12-17T11:31:08.641Z,4.70
2018-12-17T11:33:37.152Z,6.97
2018-12-17T11:36:05.851Z,4.47
2018-12-17T11:38:34.413Z,4.43
2018-12-17T11:41:03.122Z,6.67
2018-12-17T11:43:31.672Z,6.03
2018-12-17T11:46:02.440Z,6.10
2018-12-17T11:48:31.453Z,4.57
2018-12-17T11:51:00.022Z,4.53
2018-12-17T11:53:28.657Z,5.20
2018-12-17T11:55:57.490Z,6.93
2018-12-17T11:58:26.126Z,6.07
2018-12-17T12:00:56.897Z,7.43
2018-12-17T12:03:25.757Z,7.93
2018-12-17T12:05:54.328Z,5.97
2018-12-17T12:08:23.033Z,5.43
2018-12-17T12:10:51.859Z,5.60
2018-12-17T12:13:20.494Z,8.83
2018-12-17T12:15:49.047Z,5.93
2018-12-17T12:18:17.764Z,5.03
2018-12-17T12:20:46.309Z,4.03
2018-12-17T12:23:15.037Z,8.27
2018-12-17T12:25:43.671Z,4.97
2018-12-17T12:28:12.283Z,6.03
2018-12-17T12:30:40.942Z,6.47
2018-12-17T12:33:09.769Z,5.83
2018-12-17T12:35:38.337Z,8.60
2018-12-17T12:38:06.848Z,4.37
2018-12-17T12:40:35.271Z,4.20
2018-12-17T12:43:03.921Z,6.10
2018-12-17T12:45:32.557Z,5.83
2018-12-17T12:48:01.198Z,4.73
2018-12-17T12:50:29.742Z,7.07
2018-12-17T12:52:58.467Z,3.07
2018-12-17T12:55:27.105Z,5.13
2018-12-17T12:57:55.735Z,6.13
2018-12-17T13:00:24.371Z,5.63
2018-12-17T13:02:53.006Z,7.20
2018-12-17T13:05:21.642Z,5.63
2018-12-17T13:07:50.386Z,7.93
2018-12-17T13:10:19.081Z,7.47
2018-12-17T13:12:47.744Z,4.73
2018-12-17T13:15:16.317Z,5.43
2018-12-17T13:17:45.626Z,6.50
2018-12-17T13:20:14.633Z,5.97
2018-12-17T13:22:43.272Z,5.83
2018-12-17T13:25:13.933Z,5.37
2018-12-17T13:27:42.701Z,5.83
2018-12-17T13:30:11.536Z,5.33
2018-12-17T13:32:40.169Z,6.87
2018-12-17T13:35:09.001Z,8.77
2018-12-17T13:37:37.638Z,6.03
2018-12-17T13:40:08.794Z,5.73
2018-12-17T13:42:37.403Z,4.53
2018-12-17T13:45:10.746Z,5.43
2018-12-17T13:47:39.453Z,5.17
2018-12-17T13:50:13.680Z,6.77
2018-12-17T13:52:46.072Z,8.60
2018-12-17T13:55:15.264Z,6.00
2018-12-17T13:57:44.021Z,7.43
2018-12-17T14:00:12.856Z,8.20
2018-12-17T14:02:41.491Z,8.23
2018-12-17T14:05:10.519Z,6.97
2018-12-17T14:07:39.076Z,6.20
2018-12-17T14:10:14.550Z,6.20
2018-12-17T14:12:43.186Z,6.33
2018-12-17T14:15:11.940Z,6.83
2018-12-17T14:17:42.738Z,4.33
2018-12-17T14:20:16.865Z,7.23
2018-12-17T14:22:45.515Z,6.87
2018-12-17T14:25:14.151Z,8.30
2018-12-17T14:27:42.787Z,5.40
2018-12-17T14:30:11.622Z,6.00
2018-12-17T14:32:40.175Z,5.70
2018-12-17T14:35:09.015Z,5.63
2018-12-17T14:37:39.758Z,7.33
2018-12-17T14:40:08.914Z,14.57
2018-12-17T14:42:37.554Z,6.83
2018-12-17T14:45:07.475Z,5.97
2018-12-17T14:47:36.197Z,5.97
2018-12-17T14:50:05.748Z,8.00
2018-12-17T14:52:34.412Z,5.70
2018-12-17T14:55:04.769Z,9.80
2018-12-17T14:57:35.455Z,7.80
2018-12-17T15:00:12.018Z,6.63
2018-12-17T15:02:40.591Z,8.87
2018-12-17T15:05:10.325Z,9.37
2018-12-17T15:07:39.041Z,8.97
2018-12-17T15:10:08.071Z,8.47
2018-12-17T15:12:36.624Z,7.23
2018-12-17T15:15:10.063Z,6.90
2018-12-17T15:17:38.894Z,7.23
2018-12-17T15:20:10.280Z,6.20
2018-12-17T15:22:38.783Z,8.10
2018-12-17T15:25:09.385Z,10.30
2018-12-17T15:27:38.180Z,8.07
2018-12-17T15:30:07.102Z,13.70
2018-12-17T15:32:35.689Z,17.07
2018-12-17T15:35:05.239Z,32.53
2018-12-17T15:37:33.872Z,65.00
2018-12-17T15:40:02.774Z,73.93
2018-12-17T15:42:31.340Z,46.07
2018-12-17T15:44:59.850Z,41.07
2018-12-17T15:47:28.610Z,32.13
2018-12-17T15:49:57.442Z,26.00
2018-12-17T15:52:25.949Z,19.73
2018-12-17T15:54:54.698Z,16.10
2018-12-17T15:57:23.349Z,13.87
2018-12-17T15:59:52.053Z,9.03
2018-12-17T16:02:20.797Z,8.87
2018-12-17T16:04:49.451Z,7.77
2018-12-17T16:07:18.086Z,12.17
2018-12-17T16:09:46.798Z,11.00
2018-12-17T16:12:16.644Z,8.20
2018-12-17T16:14:57.362Z,10.03
2018-12-17T16:17:26.101Z,12.70
2018-12-17T16:19:54.830Z,11.27
2018-12-17T16:22:23.661Z,13.43
2018-12-17T16:24:52.165Z,11.33
2018-12-17T16:27:20.843Z,10.47
2018-12-17T16:29:49.745Z,10.63
2018-12-17T16:32:18.401Z,5.33
2018-12-17T16:34:47.035Z,9.20
2018-12-17T16:37:15.588Z,12.60
2018-12-17T16:39:44.505Z,12.73
2018-12-17T16:42:13.122Z,14.63
2018-12-17T16:44:41.692Z,11.30
2018-12-17T16:47:10.409Z,12.40
2018-12-17T16:49:38.973Z,15.23
2018-12-17T16:52:07.640Z,15.23
2018-12-17T16:54:36.388Z,19.27
2018-12-17T16:57:05.078Z,22.37
2018-12-17T16:59:33.692Z,20.80
2018-12-17T17:02:04.605Z,20.63
2018-12-17T17:04:33.127Z,25.63
2018-12-17T17:07:02.020Z,23.90
2018-12-17T17:09:30.683Z,25.27
2018-12-17T17:11:59.322Z,26.30
2018-12-17T17:14:27.955Z,26.63
2018-12-17T17:16:56.565Z,31.27
2018-12-17T17:19:25.133Z,33.40
2018-12-17T17:21:53.921Z,27.37
2018-12-17T17:24:22.820Z,22.80
2018-12-17T17:26:51.525Z,23.03
2018-12-17T17:29:20.075Z,35.80
2018-12-17T17:31:48.768Z,26.37
2018-12-17T17:34:17.560Z,32.63
2018-12-17T17:36:46.262Z,24.03
2018-12-17T17:39:14.821Z,32.47
2018-12-17T17:41:43.535Z,45.20
2018-12-17T17:44:12.364Z,40.17
2018-12-17T17:46:41.198Z,48.30
2018-12-17T17:49:09.832Z,39.80
2018-12-17T17:51:38.468Z,48.90
2018-12-17T17:54:07.023Z,44.47
2018-12-17T17:56:35.738Z,42.97
2018-12-17T17:59:04.570Z,41.13
2018-12-17T18:01:33.125Z,41.70
2018-12-17T18:04:01.842Z,43.80
2018-12-17T18:06:30.586Z,46.90
2018-12-17T18:08:59.277Z,39.30
2018-12-17T18:11:27.946Z,41.07
2018-12-17T18:13:56.512Z,40.57
2018-12-17T18:16:25.381Z,36.77
2018-12-17T18:18:54.048Z,39.73
2018-12-17T18:21:22.943Z,31.27
2018-12-17T18:23:51.711Z,31.83
2018-12-17T18:26:20.346Z,31.00
2018-12-17T18:28:49.374Z,30.87
2018-12-17T18:31:18.009Z,30.00
2018-12-17T18:33:46.575Z,30.20
2018-12-17T18:36:15.280Z,31.60
2018-12-17T18:38:43.834Z,32.53
2018-12-17T18:41:12.553Z,26.20
2018-12-17T18:43:41.096Z,30.13
2018-12-17T18:46:09.823Z,29.53
2018-12-17T18:48:38.464Z,42.27
2018-12-17T18:51:07.070Z,50.23
2018-12-17T18:53:35.841Z,95.07
2018-12-17T18:56:04.563Z,43.07
2018-12-17T18:58:33.125Z,42.03
2018-12-17T19:01:01.833Z,41.63
2018-12-17T19:03:30.467Z,37.63
2018-12-17T19:05:59.103Z,47.87
2018-12-17T19:08:27.740Z,40.57
2018-12-17T19:10:56.569Z,36.13
2018-12-17T19:13:25.081Z,36.97
2018-12-17T19:15:53.826Z,46.13
2018-12-17T19:18:22.477Z,52.27
2018-12-17T19:20:51.028Z,42.23
2018-12-17T19:23:19.746Z,33.63
2018-12-17T19:25:48.383Z,32.30
2018-12-17T19:28:16.930Z,32.63
2018-12-17T19:30:45.652Z,40.60
2018-12-17T19:33:14.291Z,33.83
2018-12-17T19:35:43.123Z,42.20
2018-12-17T19:38:11.677Z,60.03
2018-12-17T19:40:40.390Z,68.93
2018-12-17T19:43:09.027Z,74.80
2018-12-17T19:45:37.859Z,73.60
2018-12-17T19:48:06.421Z,50.37
2018-12-17T19:50:35.324Z,38.63
2018-12-17T19:53:04.079Z,30.50
2018-12-17T19:55:33.207Z,29.73
2018-12-17T19:58:02.628Z,32.30
2018-12-17T20:00:31.180Z,34.30
2018-12-17T20:02:59.954Z,35.17
2018-12-17T20:05:28.639Z,37.70
2018-12-17T20:07:57.311Z,35.67
2018-12-17T20:10:27.307Z,36.80
2018-12-17T20:12:56.117Z,40.97
2018-12-17T20:15:24.784Z,46.90
2018-12-17T20:17:53.657Z,53.00
2018-12-17T20:20:22.418Z,57.40
2018-12-17T20:22:50.928Z,52.00
2018-12-17T20:25:19.729Z,43.93
2018-12-17T20:27:48.673Z,34.70
2018-12-17T20:30:17.338Z,32.63
2018-12-17T20:32:46.059Z,26.27
2018-12-17T20:35:14.895Z,24.50
2018-12-17T20:37:43.722Z,24.73
2018-12-17T20:40:12.946Z,30.77
2018-12-17T20:42:41.871Z,37.60
2018-12-17T20:45:10.615Z,36.43
2018-12-17T20:47:39.642Z,34.93
2018-12-17T20:50:09.259Z,22.97
2018-12-17T20:52:38.018Z,26.93
2018-12-17T20:55:06.727Z,27.47
2018-12-17T20:57:35.824Z,24.87
2018-12-17T21:00:07.236Z,26.13
2018-12-17T21:02:35.938Z,27.27
2018-12-17T21:05:05.668Z,27.10
2018-12-17T21:07:34.426Z,28.70
2018-12-17T21:10:03.256Z,28.80
2018-12-17T21:12:31.806Z,27.43
2018-12-17T21:15:01.766Z,27.07
2018-12-17T21:17:31.526Z,29.67
2018-12-17T21:20:00.207Z,29.27
2018-12-17T21:22:29.914Z,37.03
2018-12-17T21:24:58.543Z,32.70
2018-12-17T21:27:27.489Z,26.93
2018-12-17T21:29:57.233Z,37.87
2018-12-17T21:32:25.887Z,37.40
2018-12-17T21:34:54.436Z,48.37
2018-12-17T21:37:23.160Z,55.97
2018-12-17T21:39:51.989Z,47.67
2018-12-17T21:42:21.090Z,55.47
2018-12-17T21:44:50.639Z,46.53
2018-12-17T21:47:19.271Z,35.53
2018-12-17T21:49:47.910Z,33.73
2018-12-17T21:52:16.631Z,34.17
2018-12-17T21:54:45.375Z,28.53
2018-12-17T21:57:14.168Z,26.13
2018-12-17T21:59:42.844Z,33.33
2018-12-17T22:02:11.672Z,30.93
2018-12-17T22:04:40.307Z,26.63
2018-12-17T22:07:08.943Z,38.23
2018-12-17T22:09:37.501Z,42.43
2018-12-17T22:12:06.142Z,37.70
2018-12-17T22:14:34.849Z,37.77
2018-12-17T22:17:03.605Z,36.17
2018-12-17T22:19:32.245Z,36.13
2018-12-17T22:22:00.964Z,29.33
2018-12-17T22:24:29.755Z,30.03
2018-12-17T22:26:58.418Z,27.60
2018-12-17T22:29:27.041Z,23.93
2018-12-17T22:31:55.689Z,26.73
2018-12-17T22:34:24.326Z,35.63
2018-12-17T22:36:52.893Z,27.37
2018-12-17T22:39:21.595Z,28.87
2018-12-17T22:41:50.300Z,38.73
2018-12-17T22:44:19.126Z,33.43
2018-12-17T22:46:47.699Z,34.60
2018-12-17T22:49:16.531Z,27.20
2018-12-17T22:51:45.165Z,35.77
2018-12-17T22:54:13.764Z,36.10
2018-12-17T22:56:42.403Z,36.67
2018-12-17T22:59:11.198Z,39.30
2018-12-17T23:01:39.904Z,50.37
2018-12-17T23:04:08.543Z,47.10
2018-12-17T23:06:37.146Z,43.37
2018-12-17T23:09:06.659Z,30.87
2018-12-17T23:11:58.554Z,36.37
2018-12-17T23:14:44.672Z,47.53
2018-12-17T23:17:31.090Z,29.90
2018-12-17T23:19:59.656Z,33.70
2018-12-17T23:22:28.427Z,29.03
2018-12-17T23:24:57.394Z,24.97
2018-12-17T23:27:25.936Z,25.90
2018-12-17T23:29:54.463Z,26.77
2018-12-17T23:32:23.415Z,27.60
2018-12-17T23:34:52.128Z,20.87
2018-12-17T23:37:20.762Z,23.20
2018-12-17T23:39:49.867Z,33.97
2018-12-17T23:42:18.587Z,26.97
2018-12-17T23:44:47.258Z,28.87
2018-12-17T23:47:15.894Z,27.10
2018-12-17T23:49:44.529Z,22.90
2018-12-17T23:52:13.164Z,23.67
2018-12-17T23:54:41.799Z,23.23
2018-12-17T23:57:10.438Z,24.87
2018-12-17T23:59:39.069Z,32.27
